sensor_id;sensor_type;location;lat;lon;timestamp;temperature;humidity
32877;DHT22;19226;51.600;8.034;2023-11-21T00:02:08;8.30;99.90
32877;DHT22;19226;51.600;8.034;2023-11-21T00:04:53;8.30;99.90
32877;DHT22;19226;51.600;8.034;2023-11-21T00:07:38;8.30;99.90
32877;DHT22;19226;51.600;8.034;2023-11-21T00:10:22;8.40;99.90
32877;DHT22;19226;51.600;8.034;2023-11-21T00:13:07;8.40;99.90
32877;DHT22;19226;51.600;8.034;2023-11-21T00:15:52;8.40;99.90
32877;DHT22;19226;51.600;8.034;2023-11-21T00:18:37;8.50;99.90
32877;DHT22;19226;51.600;8.034;2023-11-21T00:21:21;8.60;99.90
32877;DHT22;19226;51.600;8.034;2023-11-21T00:24:06;8.60;99.90
32877;DHT22;19226;51.600;8.034;2023-11-21T00:26:51;8.60;99.90
32877;DHT22;19226;51.600;8.034;2023-11-21T00:29:37;8.60;99.90
32877;DHT22;19226;51.600;8.034;2023-11-21T00:32:22;8.70;99.90
32877;DHT22;19226;51.600;8.034;2023-11-21T00:35:07;8.70;99.90
32877;DHT22;19226;51.600;8.034;2023-11-21T00:37:51;8.70;99.90
32877;DHT22;19226;51.600;8.034;2023-11-21T00:40:36;8.70;99.90
32877;DHT22;19226;51.600;8.034;2023-11-21T00:43:25;8.80;99.90
32877;DHT22;19226;51.600;8.034;2023-11-21T00:46:09;8.80;99.90
32877;DHT22;19226;51.600;8.034;2023-11-21T00:48:54;8.80;99.90
32877;DHT22;19226;51.600;8.034;2023-11-21T00:51:39;8.80;99.90
32877;DHT22;19226;51.600;8.034;2023-11-21T00:54:23;8.80;99.90
32877;DHT22;19226;51.600;8.034;2023-11-21T00:57:08;8.90;99.90
32877;DHT22;19226;51.600;8.034;2023-11-21T00:59:54;8.90;99.90
32877;DHT22;19226;51.600;8.034;2023-11-21T01:02:39;8.90;99.90
32877;DHT22;19226;51.600;8.034;2023-11-21T01:05:23;8.90;99.90
32877;DHT22;19226;51.600;8.034;2023-11-21T01:08:08;8.90;99.90
32877;DHT22;19226;51.600;8.034;2023-11-21T01:10:53;9.00;99.90
32877;DHT22;19226;51.600;8.034;2023-11-21T01:13:41;9.00;99.90
32877;DHT22;19226;51.600;8.034;2023-11-21T01:16:26;9.00;99.90
32877;DHT22;19226;51.600;8.034;2023-11-21T01:19:12;9.00;99.90
32877;DHT22;19226;51.600;8.034;2023-11-21T01:21:56;9.00;99.90
32877;DHT22;19226;51.600;8.034;2023-11-21T01:24:42;9.00;99.90
32877;DHT22;19226;51.600;8.034;2023-11-21T01:27:26;9.00;99.90
32877;DHT22;19226;51.600;8.034;2023-11-21T01:30:11;9.00;99.90
32877;DHT22;19226;51.600;8.034;2023-11-21T01:32:56;8.90;99.90
32877;DHT22;19226;51.600;8.034;2023-11-21T01:35:40;9.00;99.90
32877;DHT22;19226;51.600;8.034;2023-11-21T01:38:25;9.00;99.90
32877;DHT22;19226;51.600;8.034;2023-11-21T01:41:09;9.00;99.90
32877;DHT22;19226;51.600;8.034;2023-11-21T01:43:55;9.00;99.90
32877;DHT22;19226;51.600;8.034;2023-11-21T01:46:41;9.00;99.90
32877;DHT22;19226;51.600;8.034;2023-11-21T01:49:26;9.00;99.90
32877;DHT22;19226;51.600;8.034;2023-11-21T01:52:11;9.00;99.90
32877;DHT22;19226;51.600;8.034;2023-11-21T01:54:58;9.00;99.90
32877;DHT22;19226;51.600;8.034;2023-11-21T01:57:45;8.90;99.90
32877;DHT22;19226;51.600;8.034;2023-11-21T02:00:30;8.90;99.90
32877;DHT22;19226;51.600;8.034;2023-11-21T02:03:15;8.90;99.90
32877;DHT22;19226;51.600;8.034;2023-11-21T02:06:00;8.90;99.90
32877;DHT22;19226;51.600;8.034;2023-11-21T02:08:45;8.90;99.90
32877;DHT22;19226;51.600;8.034;2023-11-21T02:11:30;8.90;99.90
32877;DHT22;19226;51.600;8.034;2023-11-21T02:14:14;8.90;99.90
32877;DHT22;19226;51.600;8.034;2023-11-21T02:16:59;8.90;99.90
32877;DHT22;19226;51.600;8.034;2023-11-21T02:19:45;8.90;99.90
32877;DHT22;19226;51.600;8.034;2023-11-21T02:22:33;8.90;99.90
32877;DHT22;19226;51.600;8.034;2023-11-21T02:25:20;8.90;99.90
32877;DHT22;19226;51.600;8.034;2023-11-21T02:28:05;8.90;99.90
32877;DHT22;19226;51.600;8.034;2023-11-21T02:30:52;9.00;99.90
32877;DHT22;19226;51.600;8.034;2023-11-21T02:33:40;9.00;99.90
32877;DHT22;19226;51.600;8.034;2023-11-21T02:36:25;9.00;99.90
32877;DHT22;19226;51.600;8.034;2023-11-21T02:39:10;9.00;99.90
32877;DHT22;19226;51.600;8.034;2023-11-21T02:41:55;9.00;99.90
32877;DHT22;19226;51.600;8.034;2023-11-21T02:44:40;9.00;99.90
32877;DHT22;19226;51.600;8.034;2023-11-21T02:47:24;9.00;99.90
32877;DHT22;19226;51.600;8.034;2023-11-21T02:50:09;9.00;99.90
32877;DHT22;19226;51.600;8.034;2023-11-21T02:52:53;9.10;99.90
32877;DHT22;19226;51.600;8.034;2023-11-21T02:55:38;9.00;99.90
32877;DHT22;19226;51.600;8.034;2023-11-21T02:58:23;9.10;99.90
32877;DHT22;19226;51.600;8.034;2023-11-21T03:01:07;9.10;99.90
32877;DHT22;19226;51.600;8.034;2023-11-21T03:03:52;9.10;99.90
32877;DHT22;19226;51.600;8.034;2023-11-21T03:06:37;9.10;99.90
32877;DHT22;19226;51.600;8.034;2023-11-21T03:09:21;9.20;99.90
32877;DHT22;19226;51.600;8.034;2023-11-21T03:12:05;9.10;99.90
32877;DHT22;19226;51.600;8.034;2023-11-21T03:14:50;9.10;99.90
32877;DHT22;19226;51.600;8.034;2023-11-21T03:17:34;9.10;99.90
32877;DHT22;19226;51.600;8.034;2023-11-21T03:20:19;9.20;99.90
32877;DHT22;19226;51.600;8.034;2023-11-21T03:23:06;9.20;99.90
32877;DHT22;19226;51.600;8.034;2023-11-21T03:25:51;9.20;99.90
32877;DHT22;19226;51.600;8.034;2023-11-21T03:28:36;9.20;99.90
32877;DHT22;19226;51.600;8.034;2023-11-21T03:31:21;9.20;99.90
32877;DHT22;19226;51.600;8.034;2023-11-21T03:34:14;9.20;99.90
32877;DHT22;19226;51.600;8.034;2023-11-21T03:36:59;9.20;99.90
32877;DHT22;19226;51.600;8.034;2023-11-21T03:39:44;9.20;99.90
32877;DHT22;19226;51.600;8.034;2023-11-21T03:42:28;9.20;99.90
32877;DHT22;19226;51.600;8.034;2023-11-21T03:45:13;9.20;99.90
32877;DHT22;19226;51.600;8.034;2023-11-21T03:47:58;9.20;99.90
32877;DHT22;19226;51.600;8.034;2023-11-21T03:50:46;9.20;99.90
32877;DHT22;19226;51.600;8.034;2023-11-21T03:53:31;9.20;99.90
32877;DHT22;19226;51.600;8.034;2023-11-21T03:56:16;9.20;99.90
32877;DHT22;19226;51.600;8.034;2023-11-21T03:59:00;9.20;99.90
32877;DHT22;19226;51.600;8.034;2023-11-21T04:01:45;9.20;99.90
32877;DHT22;19226;51.600;8.034;2023-11-21T04:04:30;9.20;99.90
32877;DHT22;19226;51.600;8.034;2023-11-21T04:07:14;9.30;99.90
32877;DHT22;19226;51.600;8.034;2023-11-21T04:09:59;9.30;99.90
32877;DHT22;19226;51.600;8.034;2023-11-21T04:12:45;9.20;99.90
32877;DHT22;19226;51.600;8.034;2023-11-21T04:15:29;9.20;99.90
32877;DHT22;19226;51.600;8.034;2023-11-21T04:18:14;9.20;99.90
32877;DHT22;19226;51.600;8.034;2023-11-21T04:20:58;9.20;99.90
32877;DHT22;19226;51.600;8.034;2023-11-21T04:23:43;9.20;99.90
32877;DHT22;19226;51.600;8.034;2023-11-21T04:26:27;9.20;99.90
32877;DHT22;19226;51.600;8.034;2023-11-21T04:29:12;9.20;99.90
32877;DHT22;19226;51.600;8.034;2023-11-21T04:31:57;9.20;99.90
32877;DHT22;19226;51.600;8.034;2023-11-21T04:34:41;9.20;99.90
32877;DHT22;19226;51.600;8.034;2023-11-21T04:37:26;9.30;99.90
32877;DHT22;19226;51.600;8.034;2023-11-21T04:40:11;9.30;99.90
32877;DHT22;19226;51.600;8.034;2023-11-21T04:42:56;9.30;99.90
32877;DHT22;19226;51.600;8.034;2023-11-21T04:45:41;9.30;99.90
32877;DHT22;19226;51.600;8.034;2023-11-21T04:48:25;9.30;99.90
32877;DHT22;19226;51.600;8.034;2023-11-21T04:51:10;9.40;99.90
32877;DHT22;19226;51.600;8.034;2023-11-21T04:53:57;9.30;99.90
32877;DHT22;19226;51.600;8.034;2023-11-21T04:56:41;9.40;99.90
32877;DHT22;19226;51.600;8.034;2023-11-21T04:59:26;9.40;99.90
32877;DHT22;19226;51.600;8.034;2023-11-21T05:02:11;9.40;99.90
32877;DHT22;19226;51.600;8.034;2023-11-21T05:04:56;9.40;99.90
32877;DHT22;19226;51.600;8.034;2023-11-21T05:07:41;9.40;99.90
32877;DHT22;19226;51.600;8.034;2023-11-21T05:10:27;9.40;99.90
32877;DHT22;19226;51.600;8.034;2023-11-21T05:13:11;9.40;99.90
32877;DHT22;19226;51.600;8.034;2023-11-21T05:15:56;9.40;99.90
32877;DHT22;19226;51.600;8.034;2023-11-21T05:18:43;9.40;99.90
32877;DHT22;19226;51.600;8.034;2023-11-21T05:21:28;9.30;99.90
32877;DHT22;19226;51.600;8.034;2023-11-21T05:24:16;9.30;99.90
32877;DHT22;19226;51.600;8.034;2023-11-21T05:27:01;9.30;99.90
32877;DHT22;19226;51.600;8.034;2023-11-21T05:29:46;9.30;99.90
32877;DHT22;19226;51.600;8.034;2023-11-21T05:32:31;9.30;99.90
32877;DHT22;19226;51.600;8.034;2023-11-21T05:35:15;9.20;99.90
32877;DHT22;19226;51.600;8.034;2023-11-21T05:37:59;9.30;99.90
32877;DHT22;19226;51.600;8.034;2023-11-21T05:40:44;9.30;99.90
32877;DHT22;19226;51.600;8.034;2023-11-21T05:43:28;9.20;99.90
32877;DHT22;19226;51.600;8.034;2023-11-21T05:46:14;9.20;99.90
32877;DHT22;19226;51.600;8.034;2023-11-21T05:48:59;9.30;99.90
32877;DHT22;19226;51.600;8.034;2023-11-21T05:51:44;9.30;99.90
32877;DHT22;19226;51.600;8.034;2023-11-21T05:54:29;9.30;99.90
32877;DHT22;19226;51.600;8.034;2023-11-21T05:57:15;9.30;99.90
32877;DHT22;19226;51.600;8.034;2023-11-21T05:59:59;9.30;99.90
32877;DHT22;19226;51.600;8.034;2023-11-21T06:02:44;9.40;99.90
32877;DHT22;19226;51.600;8.034;2023-11-21T06:05:29;9.40;99.90
32877;DHT22;19226;51.600;8.034;2023-11-21T06:08:17;9.30;99.90
32877;DHT22;19226;51.600;8.034;2023-11-21T06:11:01;9.40;99.90
32877;DHT22;19226;51.600;8.034;2023-11-21T06:13:46;9.40;99.90
32877;DHT22;19226;51.600;8.034;2023-11-21T06:16:31;9.40;99.90
32877;DHT22;19226;51.600;8.034;2023-11-21T06:19:17;9.40;99.90
32877;DHT22;19226;51.600;8.034;2023-11-21T06:22:01;9.30;99.90
32877;DHT22;19226;51.600;8.034;2023-11-21T06:24:46;9.40;99.90
32877;DHT22;19226;51.600;8.034;2023-11-21T06:27:41;9.40;99.90
32877;DHT22;19226;51.600;8.034;2023-11-21T06:30:38;9.30;99.90
32877;DHT22;19226;51.600;8.034;2023-11-21T06:33:22;9.30;99.90
32877;DHT22;19226;51.600;8.034;2023-11-21T06:36:07;9.30;99.90
32877;DHT22;19226;51.600;8.034;2023-11-21T06:38:52;9.30;99.90
32877;DHT22;19226;51.600;8.034;2023-11-21T06:41:37;9.30;99.90
32877;DHT22;19226;51.600;8.034;2023-11-21T06:44:23;9.40;99.90
32877;DHT22;19226;51.600;8.034;2023-11-21T06:47:07;9.30;99.90
32877;DHT22;19226;51.600;8.034;2023-11-21T06:49:53;9.40;99.90
32877;DHT22;19226;51.600;8.034;2023-11-21T06:52:37;9.30;99.90
32877;DHT22;19226;51.600;8.034;2023-11-21T06:55:22;9.40;99.90
32877;DHT22;19226;51.600;8.034;2023-11-21T06:58:07;9.40;99.90
32877;DHT22;19226;51.600;8.034;2023-11-21T07:00:51;9.40;99.90
32877;DHT22;19226;51.600;8.034;2023-11-21T07:03:36;9.40;99.90
32877;DHT22;19226;51.600;8.034;2023-11-21T07:06:21;9.40;99.90
32877;DHT22;19226;51.600;8.034;2023-11-21T07:09:06;9.40;99.90
32877;DHT22;19226;51.600;8.034;2023-11-21T07:11:52;9.50;99.90
32877;DHT22;19226;51.600;8.034;2023-11-21T07:14:37;9.50;99.90
32877;DHT22;19226;51.600;8.034;2023-11-21T07:17:24;9.50;99.90
32877;DHT22;19226;51.600;8.034;2023-11-21T07:20:09;9.50;99.90
32877;DHT22;19226;51.600;8.034;2023-11-21T07:22:54;9.50;99.90
32877;DHT22;19226;51.600;8.034;2023-11-21T07:25:40;9.50;99.90
32877;DHT22;19226;51.600;8.034;2023-11-21T07:28:25;9.50;99.90
32877;DHT22;19226;51.600;8.034;2023-11-21T07:31:10;9.50;99.90
32877;DHT22;19226;51.600;8.034;2023-11-21T07:33:55;9.50;99.90
32877;DHT22;19226;51.600;8.034;2023-11-21T07:36:41;9.50;99.90
32877;DHT22;19226;51.600;8.034;2023-11-21T07:39:26;9.50;99.90
32877;DHT22;19226;51.600;8.034;2023-11-21T07:42:11;9.50;99.90
32877;DHT22;19226;51.600;8.034;2023-11-21T07:44:55;9.50;99.90
32877;DHT22;19226;51.600;8.034;2023-11-21T07:47:40;9.50;99.90
32877;DHT22;19226;51.600;8.034;2023-11-21T07:50:25;9.50;99.90
32877;DHT22;19226;51.600;8.034;2023-11-21T07:53:11;9.50;99.90
32877;DHT22;19226;51.600;8.034;2023-11-21T07:56:04;9.50;99.90
32877;DHT22;19226;51.600;8.034;2023-11-21T07:58:49;9.50;99.90
32877;DHT22;19226;51.600;8.034;2023-11-21T08:01:34;9.60;99.90
32877;DHT22;19226;51.600;8.034;2023-11-21T08:04:19;9.60;99.90
32877;DHT22;19226;51.600;8.034;2023-11-21T08:07:03;9.60;99.90
32877;DHT22;19226;51.600;8.034;2023-11-21T08:09:48;9.60;99.90
32877;DHT22;19226;51.600;8.034;2023-11-21T08:12:34;9.60;99.90
32877;DHT22;19226;51.600;8.034;2023-11-21T08:15:19;9.60;99.90
32877;DHT22;19226;51.600;8.034;2023-11-21T08:18:04;9.60;99.90
32877;DHT22;19226;51.600;8.034;2023-11-21T08:20:48;9.70;99.90
32877;DHT22;19226;51.600;8.034;2023-11-21T08:23:33;9.70;99.90
32877;DHT22;19226;51.600;8.034;2023-11-21T08:26:18;9.70;99.90
32877;DHT22;19226;51.600;8.034;2023-11-21T08:29:03;9.60;99.90
32877;DHT22;19226;51.600;8.034;2023-11-21T08:31:47;9.70;99.90
32877;DHT22;19226;51.600;8.034;2023-11-21T08:34:31;9.70;99.90
32877;DHT22;19226;51.600;8.034;2023-11-21T08:37:17;9.70;99.90
32877;DHT22;19226;51.600;8.034;2023-11-21T08:40:01;9.70;99.90
32877;DHT22;19226;51.600;8.034;2023-11-21T08:42:46;9.80;99.90
32877;DHT22;19226;51.600;8.034;2023-11-21T08:45:32;9.80;99.90
32877;DHT22;19226;51.600;8.034;2023-11-21T08:48:18;9.80;99.90
32877;DHT22;19226;51.600;8.034;2023-11-21T08:51:03;9.80;99.90
32877;DHT22;19226;51.600;8.034;2023-11-21T08:53:48;9.80;99.90
32877;DHT22;19226;51.600;8.034;2023-11-21T08:56:33;9.80;99.90
32877;DHT22;19226;51.600;8.034;2023-11-21T08:59:17;9.70;99.90
32877;DHT22;19226;51.600;8.034;2023-11-21T09:02:03;9.80;99.90
32877;DHT22;19226;51.600;8.034;2023-11-21T09:04:48;9.80;99.90
32877;DHT22;19226;51.600;8.034;2023-11-21T09:07:32;9.80;99.90
32877;DHT22;19226;51.600;8.034;2023-11-21T09:10:17;9.90;99.90
32877;DHT22;19226;51.600;8.034;2023-11-21T09:13:02;9.80;99.90
32877;DHT22;19226;51.600;8.034;2023-11-21T09:15:47;9.80;99.90
32877;DHT22;19226;51.600;8.034;2023-11-21T09:18:33;9.90;99.90
32877;DHT22;19226;51.600;8.034;2023-11-21T09:21:18;9.90;99.90
32877;DHT22;19226;51.600;8.034;2023-11-21T09:24:03;9.90;99.90
32877;DHT22;19226;51.600;8.034;2023-11-21T09:26:47;10.00;99.90
32877;DHT22;19226;51.600;8.034;2023-11-21T09:29:31;9.90;99.90
32877;DHT22;19226;51.600;8.034;2023-11-21T09:32:16;9.90;99.90
32877;DHT22;19226;51.600;8.034;2023-11-21T09:35:04;9.90;99.90
32877;DHT22;19226;51.600;8.034;2023-11-21T09:37:49;10.00;99.90
32877;DHT22;19226;51.600;8.034;2023-11-21T09:40:34;9.90;99.90
32877;DHT22;19226;51.600;8.034;2023-11-21T09:43:19;10.00;99.90
32877;DHT22;19226;51.600;8.034;2023-11-21T09:46:06;10.00;99.90
32877;DHT22;19226;51.600;8.034;2023-11-21T09:48:56;10.00;99.90
32877;DHT22;19226;51.600;8.034;2023-11-21T09:51:44;10.00;99.90
32877;DHT22;19226;51.600;8.034;2023-11-21T09:54:30;10.00;99.90
32877;DHT22;19226;51.600;8.034;2023-11-21T09:57:16;9.90;99.90
32877;DHT22;19226;51.600;8.034;2023-11-21T10:00:02;9.90;99.90
32877;DHT22;19226;51.600;8.034;2023-11-21T10:02:51;10.00;99.90
32877;DHT22;19226;51.600;8.034;2023-11-21T10:05:37;9.90;99.90
32877;DHT22;19226;51.600;8.034;2023-11-21T10:08:23;9.90;99.90
32877;DHT22;19226;51.600;8.034;2023-11-21T10:11:11;9.90;99.90
32877;DHT22;19226;51.600;8.034;2023-11-21T10:13:58;10.00;99.90
32877;DHT22;19226;51.600;8.034;2023-11-21T10:16:46;10.00;99.90
32877;DHT22;19226;51.600;8.034;2023-11-21T10:19:31;10.00;99.90
32877;DHT22;19226;51.600;8.034;2023-11-21T10:22:17;10.00;99.90
32877;DHT22;19226;51.600;8.034;2023-11-21T10:25:04;10.00;99.90
32877;DHT22;19226;51.600;8.034;2023-11-21T10:27:57;10.00;99.90
32877;DHT22;19226;51.600;8.034;2023-11-21T10:30:42;9.90;99.90
32877;DHT22;19226;51.600;8.034;2023-11-21T10:33:28;9.90;99.90
32877;DHT22;19226;51.600;8.034;2023-11-21T10:36:13;10.00;99.90
32877;DHT22;19226;51.600;8.034;2023-11-21T10:38:57;10.00;99.90
32877;DHT22;19226;51.600;8.034;2023-11-21T10:41:44;10.00;99.90
32877;DHT22;19226;51.600;8.034;2023-11-21T10:44:29;10.10;99.90
32877;DHT22;19226;51.600;8.034;2023-11-21T10:47:14;10.10;99.90
32877;DHT22;19226;51.600;8.034;2023-11-21T10:50:00;10.10;99.90
32877;DHT22;19226;51.600;8.034;2023-11-21T10:52:46;10.10;99.90
32877;DHT22;19226;51.600;8.034;2023-11-21T10:55:32;10.10;99.90
32877;DHT22;19226;51.600;8.034;2023-11-21T10:58:17;10.10;99.90
32877;DHT22;19226;51.600;8.034;2023-11-21T11:01:06;10.10;99.90
32877;DHT22;19226;51.600;8.034;2023-11-21T11:03:52;10.10;99.90
32877;DHT22;19226;51.600;8.034;2023-11-21T11:06:38;10.10;99.90
32877;DHT22;19226;51.600;8.034;2023-11-21T11:09:24;10.10;99.90
32877;DHT22;19226;51.600;8.034;2023-11-21T11:12:08;10.10;99.90
32877;DHT22;19226;51.600;8.034;2023-11-21T11:14:55;10.10;99.90
32877;DHT22;19226;51.600;8.034;2023-11-21T11:17:40;10.10;99.90
32877;DHT22;19226;51.600;8.034;2023-11-21T11:20:31;10.20;99.90
32877;DHT22;19226;51.600;8.034;2023-11-21T11:27:15;10.20;99.90
32877;DHT22;19226;51.600;8.034;2023-11-21T11:39:34;10.20;99.90
32877;DHT22;19226;51.600;8.034;2023-11-21T11:42:21;10.30;99.90
32877;DHT22;19226;51.600;8.034;2023-11-21T11:45:17;10.30;99.90
32877;DHT22;19226;51.600;8.034;2023-11-21T11:48:05;10.30;99.90
32877;DHT22;19226;51.600;8.034;2023-11-21T11:51:06;10.30;99.90
32877;DHT22;19226;51.600;8.034;2023-11-21T11:53:54;10.40;99.90
32877;DHT22;19226;51.600;8.034;2023-11-21T11:56:39;10.40;99.90
32877;DHT22;19226;51.600;8.034;2023-11-21T11:59:24;10.40;99.90
32877;DHT22;19226;51.600;8.034;2023-11-21T12:02:10;10.30;99.90
32877;DHT22;19226;51.600;8.034;2023-11-21T12:04:56;10.30;99.90
32877;DHT22;19226;51.600;8.034;2023-11-21T12:07:48;10.30;99.90
32877;DHT22;19226;51.600;8.034;2023-11-21T12:10:37;10.30;99.90
32877;DHT22;19226;51.600;8.034;2023-11-21T12:13:23;10.30;99.90
32877;DHT22;19226;51.600;8.034;2023-11-21T12:16:07;10.30;99.90
32877;DHT22;19226;51.600;8.034;2023-11-21T12:18:52;10.30;99.90
32877;DHT22;19226;51.600;8.034;2023-11-21T12:21:38;10.30;99.90
32877;DHT22;19226;51.600;8.034;2023-11-21T12:24:23;10.30;99.90
32877;DHT22;19226;51.600;8.034;2023-11-21T12:27:07;10.30;99.90
32877;DHT22;19226;51.600;8.034;2023-11-21T12:29:52;10.30;99.90
32877;DHT22;19226;51.600;8.034;2023-11-21T12:32:40;10.30;99.90
32877;DHT22;19226;51.600;8.034;2023-11-21T12:35:29;10.30;99.90
32877;DHT22;19226;51.600;8.034;2023-11-21T12:38:14;10.30;99.90
32877;DHT22;19226;51.600;8.034;2023-11-21T12:41:02;10.30;99.90
32877;DHT22;19226;51.600;8.034;2023-11-21T12:43:46;10.30;99.90
32877;DHT22;19226;51.600;8.034;2023-11-21T12:46:31;10.30;99.90
32877;DHT22;19226;51.600;8.034;2023-11-21T12:49:18;10.30;99.90
32877;DHT22;19226;51.600;8.034;2023-11-21T12:52:03;10.30;99.90
32877;DHT22;19226;51.600;8.034;2023-11-21T12:54:48;10.30;99.90
32877;DHT22;19226;51.600;8.034;2023-11-21T12:57:33;10.30;99.90
32877;DHT22;19226;51.600;8.034;2023-11-21T13:00:19;10.30;99.90
32877;DHT22;19226;51.600;8.034;2023-11-21T13:03:16;10.30;99.90
32877;DHT22;19226;51.600;8.034;2023-11-21T13:06:05;10.20;99.90
32877;DHT22;19226;51.600;8.034;2023-11-21T13:08:49;10.20;99.90
32877;DHT22;19226;51.600;8.034;2023-11-21T13:11:37;10.20;99.90
32877;DHT22;19226;51.600;8.034;2023-11-21T13:14:29;10.20;99.90
32877;DHT22;19226;51.600;8.034;2023-11-21T13:17:16;10.20;99.90
32877;DHT22;19226;51.600;8.034;2023-11-21T13:20:00;10.10;99.90
32877;DHT22;19226;51.600;8.034;2023-11-21T13:22:52;10.10;99.90
32877;DHT22;19226;51.600;8.034;2023-11-21T13:25:45;10.10;99.90
32877;DHT22;19226;51.600;8.034;2023-11-21T13:28:32;10.10;99.90
32877;DHT22;19226;51.600;8.034;2023-11-21T13:31:18;10.00;99.90
32877;DHT22;19226;51.600;8.034;2023-11-21T13:34:07;10.00;99.90
32877;DHT22;19226;51.600;8.034;2023-11-21T13:36:52;9.90;99.90
32877;DHT22;19226;51.600;8.034;2023-11-21T13:39:42;9.90;99.90
32877;DHT22;19226;51.600;8.034;2023-11-21T13:42:34;9.80;99.90
32877;DHT22;19226;51.600;8.034;2023-11-21T13:45:19;9.80;99.90
32877;DHT22;19226;51.600;8.034;2023-11-21T13:48:05;9.80;99.90
32877;DHT22;19226;51.600;8.034;2023-11-21T13:50:54;9.80;99.90
32877;DHT22;19226;51.600;8.034;2023-11-21T13:53:57;9.70;99.90
32877;DHT22;19226;51.600;8.034;2023-11-21T13:56:42;9.70;99.90
32877;DHT22;19226;51.600;8.034;2023-11-21T13:59:28;9.60;99.90
32877;DHT22;19226;51.600;8.034;2023-11-21T14:02:14;9.50;99.90
32877;DHT22;19226;51.600;8.034;2023-11-21T14:05:03;9.50;99.90
32877;DHT22;19226;51.600;8.034;2023-11-21T14:07:53;9.50;99.90
32877;DHT22;19226;51.600;8.034;2023-11-21T14:10:39;9.60;99.90
32877;DHT22;19226;51.600;8.034;2023-11-21T14:13:34;9.50;99.90
32877;DHT22;19226;51.600;8.034;2023-11-21T14:16:19;9.50;99.90
32877;DHT22;19226;51.600;8.034;2023-11-21T14:19:03;9.50;99.90
32877;DHT22;19226;51.600;8.034;2023-11-21T14:22:00;9.40;99.90
32877;DHT22;19226;51.600;8.034;2023-11-21T14:24:45;9.40;99.90
32877;DHT22;19226;51.600;8.034;2023-11-21T14:27:31;9.40;99.90
32877;DHT22;19226;51.600;8.034;2023-11-21T14:30:17;9.40;99.90
32877;DHT22;19226;51.600;8.034;2023-11-21T14:33:03;9.30;99.90
32877;DHT22;19226;51.600;8.034;2023-11-21T14:35:48;9.30;99.90
32877;DHT22;19226;51.600;8.034;2023-11-21T14:38:32;9.30;99.90
32877;DHT22;19226;51.600;8.034;2023-11-21T14:41:17;9.20;99.90
32877;DHT22;19226;51.600;8.034;2023-11-21T14:44:02;9.20;99.90
32877;DHT22;19226;51.600;8.034;2023-11-21T14:46:48;9.10;99.90
32877;DHT22;19226;51.600;8.034;2023-11-21T14:49:34;9.10;99.90
32877;DHT22;19226;51.600;8.034;2023-11-21T14:52:36;9.10;99.90
32877;DHT22;19226;51.600;8.034;2023-11-21T14:55:28;9.10;99.90
32877;DHT22;19226;51.600;8.034;2023-11-21T14:58:23;9.10;99.90
32877;DHT22;19226;51.600;8.034;2023-11-21T15:01:11;9.10;99.90
32877;DHT22;19226;51.600;8.034;2023-11-21T15:03:56;9.10;99.90
32877;DHT22;19226;51.600;8.034;2023-11-21T15:06:41;9.00;99.90
32877;DHT22;19226;51.600;8.034;2023-11-21T15:09:27;9.00;99.90
32877;DHT22;19226;51.600;8.034;2023-11-21T15:12:29;8.90;99.90
32877;DHT22;19226;51.600;8.034;2023-11-21T15:15:17;8.90;99.90
32877;DHT22;19226;51.600;8.034;2023-11-21T15:18:03;8.80;99.90
32877;DHT22;19226;51.600;8.034;2023-11-21T15:20:48;8.80;99.90
32877;DHT22;19226;51.600;8.034;2023-11-21T15:23:35;8.80;99.90
32877;DHT22;19226;51.600;8.034;2023-11-21T15:26:20;8.80;99.90
32877;DHT22;19226;51.600;8.034;2023-11-21T15:29:06;8.80;99.90
32877;DHT22;19226;51.600;8.034;2023-11-21T15:31:51;8.80;99.90
32877;DHT22;19226;51.600;8.034;2023-11-21T15:34:40;8.70;99.90
32877;DHT22;19226;51.600;8.034;2023-11-21T15:37:25;8.60;99.90
32877;DHT22;19226;51.600;8.034;2023-11-21T15:40:12;8.60;99.90
32877;DHT22;19226;51.600;8.034;2023-11-21T15:42:58;8.60;99.90
32877;DHT22;19226;51.600;8.034;2023-11-21T15:45:43;8.60;99.90
32877;DHT22;19226;51.600;8.034;2023-11-21T15:48:28;8.50;99.90
32877;DHT22;19226;51.600;8.034;2023-11-21T15:51:14;8.60;99.90
32877;DHT22;19226;51.600;8.034;2023-11-21T15:53:59;8.50;99.90
32877;DHT22;19226;51.600;8.034;2023-11-21T15:56:44;8.40;99.90
32877;DHT22;19226;51.600;8.034;2023-11-21T15:59:29;8.50;99.90
32877;DHT22;19226;51.600;8.034;2023-11-21T16:02:17;8.50;99.90
32877;DHT22;19226;51.600;8.034;2023-11-21T16:05:02;8.50;99.90
32877;DHT22;19226;51.600;8.034;2023-11-21T16:07:49;8.50;99.90
32877;DHT22;19226;51.600;8.034;2023-11-21T16:10:35;8.50;99.90
32877;DHT22;19226;51.600;8.034;2023-11-21T16:13:20;8.50;99.90
32877;DHT22;19226;51.600;8.034;2023-11-21T16:16:05;8.50;99.90
32877;DHT22;19226;51.600;8.034;2023-11-21T16:18:49;8.50;99.90
32877;DHT22;19226;51.600;8.034;2023-11-21T16:21:33;8.40;99.90
32877;DHT22;19226;51.600;8.034;2023-11-21T16:24:18;8.40;99.90
32877;DHT22;19226;51.600;8.034;2023-11-21T16:27:03;8.40;99.90
32877;DHT22;19226;51.600;8.034;2023-11-21T16:29:48;8.40;99.90
32877;DHT22;19226;51.600;8.034;2023-11-21T16:32:34;8.50;99.90
32877;DHT22;19226;51.600;8.034;2023-11-21T16:35:19;8.40;99.90
32877;DHT22;19226;51.600;8.034;2023-11-21T16:38:04;8.40;99.90
32877;DHT22;19226;51.600;8.034;2023-11-21T16:40:48;8.40;99.90
32877;DHT22;19226;51.600;8.034;2023-11-21T16:43:34;8.40;99.90
32877;DHT22;19226;51.600;8.034;2023-11-21T16:46:18;8.40;99.90
32877;DHT22;19226;51.600;8.034;2023-11-21T16:49:02;8.40;99.90
32877;DHT22;19226;51.600;8.034;2023-11-21T16:51:47;8.40;99.90
32877;DHT22;19226;51.600;8.034;2023-11-21T16:54:32;8.40;99.90
32877;DHT22;19226;51.600;8.034;2023-11-21T16:57:17;8.40;99.90
32877;DHT22;19226;51.600;8.034;2023-11-21T17:00:01;8.40;99.90
32877;DHT22;19226;51.600;8.034;2023-11-21T17:02:50;8.40;99.90
32877;DHT22;19226;51.600;8.034;2023-11-21T17:05:34;8.30;99.90
32877;DHT22;19226;51.600;8.034;2023-11-21T17:08:19;8.40;99.90
32877;DHT22;19226;51.600;8.034;2023-11-21T17:11:04;8.30;99.90
32877;DHT22;19226;51.600;8.034;2023-11-21T17:13:52;8.30;99.90
32877;DHT22;19226;51.600;8.034;2023-11-21T17:16:37;8.20;99.90
32877;DHT22;19226;51.600;8.034;2023-11-21T17:19:24;8.20;99.90
32877;DHT22;19226;51.600;8.034;2023-11-21T17:22:09;8.30;99.90
32877;DHT22;19226;51.600;8.034;2023-11-21T17:24:54;8.20;99.90
32877;DHT22;19226;51.600;8.034;2023-11-21T17:27:38;8.20;99.90
32877;DHT22;19226;51.600;8.034;2023-11-21T17:30:23;8.30;99.90
32877;DHT22;19226;51.600;8.034;2023-11-21T17:33:07;8.20;99.90
32877;DHT22;19226;51.600;8.034;2023-11-21T17:35:52;8.20;99.90
32877;DHT22;19226;51.600;8.034;2023-11-21T17:38:37;8.10;99.90
32877;DHT22;19226;51.600;8.034;2023-11-21T17:41:22;8.00;99.90
32877;DHT22;19226;51.600;8.034;2023-11-21T17:44:07;8.10;99.90
32877;DHT22;19226;51.600;8.034;2023-11-21T17:46:51;8.10;99.90
32877;DHT22;19226;51.600;8.034;2023-11-21T17:49:36;8.10;99.90
32877;DHT22;19226;51.600;8.034;2023-11-21T17:52:20;8.10;99.90
32877;DHT22;19226;51.600;8.034;2023-11-21T17:55:05;8.10;99.90